createdAt,value
2022-09-02T00:00:09.895Z,3.38
2022-09-02T00:02:38.566Z,6.70
2022-09-02T00:05:08.105Z,4.03
2022-09-02T00:07:37.150Z,4.82
2022-09-02T00:10:07.935Z,5.22
2022-09-02T00:12:36.655Z,5.60
2022-09-02T00:15:06.958Z,4.60
2022-09-02T00:17:35.416Z,4.60
2022-09-02T00:20:05.480Z,4.70
2022-09-02T00:22:33.829Z,4.53
2022-09-02T00:25:02.207Z,3.55
2022-09-02T00:27:31.843Z,5.22
2022-09-02T00:30:00.151Z,5.65
2022-09-02T00:32:28.647Z,3.65
2022-09-02T00:34:57.996Z,4.43
2022-09-02T00:37:27.487Z,3.42
2022-09-02T00:39:58.024Z,3.50
2022-09-02T00:42:27.809Z,6.18
2022-09-02T00:44:57.660Z,3.88
2022-09-02T00:47:26.133Z,4.40
2022-09-02T00:49:55.668Z,3.42
2022-09-02T00:52:29.486Z,3.28
2022-09-02T00:55:01.869Z,4.70
2022-09-02T00:57:39.568Z,3.42
2022-09-02T01:00:17.426Z,3.88
2022-09-02T01:02:51.729Z,3.75
2022-09-02T01:05:25.008Z,3.20
2022-09-02T01:07:56.063Z,4.35
2022-09-02T01:10:27.889Z,6.25
2022-09-02T01:12:57.974Z,4.03
2022-09-02T01:15:30.261Z,4.80
2022-09-02T01:17:59.738Z,3.90
2022-09-02T01:20:28.306Z,3.92
2022-09-02T01:22:58.567Z,5.60
2022-09-02T01:25:31.847Z,6.18
2022-09-02T01:28:02.590Z,5.65
2022-09-02T01:30:32.884Z,6.05
2022-09-02T01:33:01.389Z,4.22
2022-09-02T01:35:29.733Z,4.55
2022-09-02T01:38:01.583Z,4.28
2022-09-02T01:40:32.466Z,3.70
2022-09-02T01:43:05.764Z,4.20
2022-09-02T01:45:35.633Z,3.95
2022-09-02T01:48:05.280Z,3.25
2022-09-02T01:50:34.185Z,3.25
2022-09-02T01:53:04.952Z,4.53
2022-09-02T01:55:35.743Z,4.35
2022-09-02T01:58:05.125Z,4.28
2022-09-02T02:00:33.552Z,3.65
2022-09-02T02:03:03.568Z,4.10
2022-09-02T02:05:33.457Z,4.82
2022-09-02T02:08:04.649Z,4.50
2022-09-02T02:10:33.364Z,2.95
2022-09-02T02:13:01.950Z,3.55
2022-09-02T02:18:00.916Z,4.93
2022-09-02T02:20:29.312Z,4.80
2022-09-02T02:22:58.117Z,3.88
2022-09-02T02:25:28.498Z,3.38
2022-09-02T02:27:57.909Z,6.93
2022-09-02T02:30:26.289Z,2.57
2022-09-02T02:32:55.252Z,3.85
2022-09-02T02:35:24.569Z,4.43
2022-09-02T02:37:53.880Z,3.83
2022-09-02T02:40:25.462Z,3.28
2022-09-02T02:42:56.034Z,5.65
2022-09-02T02:45:26.651Z,3.22
2022-09-02T02:47:55.576Z,5.88
2022-09-02T02:50:28.179Z,3.43
2022-09-02T02:52:57.352Z,3.37
2022-09-02T02:55:27.395Z,3.87
2022-09-02T02:57:59.192Z,3.53
2022-09-02T03:00:31.890Z,3.20
2022-09-02T03:03:04.536Z,3.42
2022-09-02T03:05:35.651Z,2.93
2022-09-02T03:08:06.851Z,3.63
2022-09-02T03:10:37.898Z,2.50
2022-09-02T03:13:09.697Z,3.42
2022-09-02T03:15:40.262Z,3.22
2022-09-02T03:18:09.575Z,2.17
2022-09-02T03:20:38.290Z,2.47
2022-09-02T03:23:09.564Z,4.07
2022-09-02T03:25:38.000Z,4.47
2022-09-02T03:28:18.513Z,3.15
2022-09-02T03:30:48.855Z,4.13
2022-09-02T03:33:19.307Z,2.95
2022-09-02T03:35:48.511Z,3.28
2022-09-02T03:38:17.276Z,5.60
2022-09-02T03:40:46.756Z,3.65
2022-09-02T03:43:18.359Z,2.33
2022-09-02T03:45:47.034Z,2.20
2022-09-02T03:48:17.138Z,3.97
2022-09-02T03:50:48.237Z,2.47
2022-09-02T03:53:20.363Z,2.70
2022-09-02T03:55:55.089Z,3.37
2022-09-02T03:58:27.490Z,2.78
2022-09-02T04:00:57.688Z,2.60
2022-09-02T04:03:27.475Z,4.63
2022-09-02T04:05:56.309Z,2.47
2022-09-02T04:08:27.900Z,4.13
2022-09-02T04:10:59.359Z,4.90
2022-09-02T04:13:29.650Z,2.13
2022-09-02T04:16:01.708Z,2.63
2022-09-02T04:18:31.757Z,3.13
2022-09-02T04:21:01.566Z,3.53
2022-09-02T04:23:30.553Z,3.35
2022-09-02T04:25:59.470Z,2.63
2022-09-02T04:28:29.170Z,3.83
2022-09-02T04:30:58.519Z,2.77
2022-09-02T04:33:26.965Z,4.13
2022-09-02T04:35:55.326Z,2.70
2022-09-02T04:38:24.405Z,3.20
2022-09-02T04:40:53.337Z,3.28
2022-09-02T04:43:21.874Z,4.67
2022-09-02T04:45:53.020Z,3.22
2022-09-02T04:48:22.011Z,2.43
2022-09-02T04:50:50.606Z,6.90
2022-09-02T04:53:19.992Z,3.22
2022-09-02T04:55:49.082Z,6.10
2022-09-02T04:58:17.586Z,2.80
2022-09-02T05:00:49.785Z,3.58
2022-09-02T05:03:21.095Z,2.72
2022-09-02T05:05:58.870Z,3.03
2022-09-02T05:08:27.770Z,5.17
2022-09-02T05:10:57.466Z,3.70
2022-09-02T05:13:27.133Z,3.33
2022-09-02T05:15:55.695Z,6.00
2022-09-02T05:18:25.455Z,1.70
2022-09-02T05:20:54.280Z,3.70
2022-09-02T05:23:22.809Z,3.92
2022-09-02T05:25:51.505Z,3.17
2022-09-02T05:28:20.004Z,4.30
2022-09-02T05:30:48.885Z,3.50
2022-09-02T05:33:18.473Z,4.70
2022-09-02T05:35:53.263Z,5.45
2022-09-02T05:38:22.472Z,3.83
2022-09-02T05:40:52.037Z,5.93
2022-09-02T05:43:20.729Z,2.88
2022-09-02T05:45:49.727Z,3.03
2022-09-02T05:48:36.070Z,2.05
2022-09-02T05:51:07.507Z,2.67
2022-09-02T05:53:36.466Z,5.38
2022-09-02T05:56:06.900Z,2.83
2022-09-02T05:58:36.100Z,2.88
2022-09-02T06:01:10.317Z,6.18
2022-09-02T06:03:39.541Z,2.97
2022-09-02T06:06:11.891Z,4.25
2022-09-02T06:08:43.504Z,2.50
2022-09-02T06:11:13.750Z,1.77
2022-09-02T06:13:44.292Z,3.08
2022-09-02T06:16:16.834Z,2.65
2022-09-02T06:18:50.112Z,1.75
2022-09-02T06:21:21.848Z,2.17
2022-09-02T06:23:53.714Z,4.43
2022-09-02T06:26:22.066Z,2.35
2022-09-02T06:28:51.242Z,2.78
2022-09-02T06:31:23.084Z,2.97
2022-09-02T06:33:55.750Z,2.22
2022-09-02T06:36:29.220Z,2.08
2022-09-02T06:39:02.136Z,1.33
2022-09-02T06:41:35.618Z,1.65
2022-09-02T06:44:09.861Z,3.35
2022-09-02T06:46:43.742Z,1.63
2022-09-02T06:49:16.362Z,2.65
2022-09-02T06:51:51.221Z,2.45
2022-09-02T06:54:22.669Z,2.40
2022-09-02T06:56:55.845Z,1.88
2022-09-02T06:59:26.993Z,2.03
2022-09-02T07:01:59.197Z,2.92
2022-09-02T07:04:46.319Z,4.75
2022-09-02T07:07:20.380Z,3.47
2022-09-02T07:09:55.557Z,2.75
2022-09-02T07:12:27.059Z,2.92
2022-09-02T07:15:03.309Z,2.58
2022-09-02T07:17:36.560Z,3.15
2022-09-02T07:20:10.857Z,2.47
2022-09-02T07:22:45.573Z,2.35
2022-09-02T07:25:17.967Z,2.67
2022-09-02T07:27:47.658Z,2.90
2022-09-02T07:30:16.025Z,3.30
2022-09-02T07:32:47.110Z,3.10
2022-09-02T07:35:17.486Z,4.40
2022-09-02T07:37:49.017Z,2.78
2022-09-02T07:40:18.405Z,1.70
2022-09-02T07:42:48.986Z,1.80
2022-09-02T07:45:19.478Z,1.75
2022-09-02T07:47:49.144Z,2.45
2022-09-02T07:50:20.724Z,1.83
2022-09-02T07:52:56.431Z,2.70
2022-09-02T07:55:26.107Z,4.07
2022-09-02T07:57:55.737Z,4.80
2022-09-02T08:00:27.680Z,3.83
2022-09-02T08:02:59.212Z,1.73
2022-09-02T08:05:34.878Z,4.18
2022-09-02T08:08:06.511Z,4.13
2022-09-02T08:10:36.247Z,1.42
2022-09-02T08:13:05.876Z,3.30
2022-09-02T08:15:36.317Z,4.25
2022-09-02T08:18:05.872Z,2.42
2022-09-02T08:20:34.993Z,2.72
2022-09-02T08:23:11.854Z,4.90
2022-09-02T08:25:46.717Z,4.43
2022-09-02T08:28:15.605Z,1.73
2022-09-02T08:30:43.960Z,2.53
2022-09-02T08:33:12.203Z,3.28
2022-09-02T08:35:40.752Z,2.67
2022-09-02T08:38:10.415Z,1.73
2022-09-02T08:40:42.203Z,3.30
2022-09-02T08:43:31.394Z,1.77
2022-09-02T08:46:05.362Z,4.78
2022-09-02T08:48:40.446Z,1.25
2022-09-02T08:51:14.214Z,1.63
2022-09-02T08:53:53.325Z,3.17
2022-09-02T08:56:21.906Z,2.20
2022-09-02T08:58:56.495Z,2.00
2022-09-02T09:01:42.551Z,2.40
2022-09-02T09:04:38.765Z,2.10
2022-09-02T09:07:29.988Z,2.92
2022-09-02T09:10:15.083Z,2.33
2022-09-02T09:13:14.243Z,6.47
2022-09-02T09:15:54.053Z,5.47
2022-09-02T09:18:36.446Z,1.88
2022-09-02T09:21:05.432Z,2.47
2022-09-02T09:23:37.125Z,1.65
2022-09-02T09:26:11.670Z,2.45
2022-09-02T09:28:42.403Z,3.85
2022-09-02T09:31:15.677Z,2.50
2022-09-02T09:33:58.027Z,1.58
2022-09-02T09:36:55.930Z,2.17
2022-09-02T09:39:29.789Z,2.25
2022-09-02T09:42:01.893Z,1.40
2022-09-02T09:44:45.631Z,3.67
2022-09-02T09:47:20.482Z,1.30
2022-09-02T09:49:51.446Z,1.75
2022-09-02T09:52:29.246Z,3.13
2022-09-02T09:55:22.734Z,1.40
2022-09-02T09:58:10.279Z,3.92
2022-09-02T10:00:40.521Z,1.55
2022-09-02T10:03:09.441Z,3.20
2022-09-02T10:05:41.136Z,3.40
2022-09-02T10:08:23.920Z,1.23
2022-09-02T10:11:02.105Z,2.40
2022-09-02T10:13:34.558Z,3.15
2022-09-02T10:16:42.645Z,2.10
2022-09-02T10:19:21.894Z,3.38
2022-09-02T10:22:37.902Z,2.70
2022-09-02T10:25:33.791Z,2.10
2022-09-02T10:28:19.314Z,1.73
2022-09-02T10:31:04.207Z,2.10
2022-09-02T10:33:47.367Z,2.13
2022-09-02T10:36:28.677Z,1.48
2022-09-02T10:39:12.731Z,1.10
2022-09-02T10:44:47.501Z,1.67
2022-09-02T10:47:32.088Z,2.63
2022-09-02T10:50:14.543Z,1.77
2022-09-02T10:53:09.947Z,2.08
2022-09-02T10:55:51.077Z,1.30
2022-09-02T10:58:25.702Z,3.25
2022-09-02T11:00:58.542Z,1.90
2022-09-02T11:03:35.215Z,1.48
2022-09-02T11:06:14.086Z,1.63
2022-09-02T11:08:49.502Z,1.67
2022-09-02T11:11:23.398Z,1.10
2022-09-02T11:14:03.734Z,1.20
2022-09-02T11:19:20.256Z,1.42
2022-09-02T11:22:01.596Z,1.63
2022-09-02T11:24:46.500Z,2.55
2022-09-02T11:27:42.083Z,1.83
2022-09-02T11:30:17.254Z,1.70
2022-09-02T11:32:54.704Z,3.10
2022-09-02T11:35:28.046Z,1.65
2022-09-02T11:38:03.468Z,1.30
2022-09-02T11:40:40.596Z,0.88
2022-09-02T11:43:32.155Z,2.15
2022-09-02T11:46:41.856Z,1.27
2022-09-02T11:49:47.385Z,2.13
2022-09-02T11:52:39.714Z,2.97
2022-09-02T11:55:16.705Z,2.13
2022-09-02T11:57:54.114Z,3.03
2022-09-02T12:00:33.616Z,2.33
2022-09-02T12:03:40.823Z,4.68
2022-09-02T12:06:14.938Z,0.80
2022-09-02T12:09:46.874Z,1.42
2022-09-02T12:13:08.425Z,1.55
2022-09-02T12:15:40.613Z,1.90
2022-09-02T12:18:32.052Z,1.10
2022-09-02T12:21:16.018Z,3.63
2022-09-02T12:24:25.461Z,1.33
2022-09-02T12:27:29.723Z,3.88
2022-09-02T12:30:01.129Z,4.28
2022-09-02T12:33:13.496Z,1.33
2022-09-02T12:35:57.652Z,1.35
2022-09-02T12:38:40.087Z,2.45
2022-09-02T12:41:31.985Z,1.13
2022-09-02T12:44:28.802Z,2.10
2022-09-02T12:47:09.788Z,2.13
2022-09-02T12:49:50.674Z,2.50
2022-09-02T12:52:44.302Z,1.92
2022-09-02T12:55:21.938Z,1.52
2022-09-02T12:57:52.747Z,0.75
2022-09-02T13:00:37.438Z,3.65
2022-09-02T13:03:31.740Z,1.98
2022-09-02T13:06:12.325Z,1.35
2022-09-02T13:09:55.384Z,1.67
2022-09-02T13:13:07.255Z,1.70
2022-09-02T13:15:58.958Z,0.90
2022-09-02T13:19:12.442Z,1.10
2022-09-02T13:22:22.146Z,1.10
2022-09-02T13:25:32.509Z,2.38
2022-09-02T13:29:01.180Z,2.33
2022-09-02T13:31:31.229Z,1.95
2022-09-02T13:34:03.632Z,1.02
2022-09-02T13:36:39.224Z,1.75
2022-09-02T13:39:18.746Z,2.30
2022-09-02T13:41:49.322Z,2.05
2022-09-02T13:44:24.683Z,2.30
2022-09-02T13:47:03.120Z,1.17
2022-09-02T13:49:38.255Z,1.63
2022-09-02T13:52:15.045Z,1.20
2022-09-02T13:54:50.360Z,2.20
2022-09-02T13:57:25.915Z,2.55
2022-09-02T13:59:58.423Z,1.42
2022-09-02T14:02:31.811Z,5.78
2022-09-02T14:05:05.849Z,3.03
2022-09-02T14:07:40.897Z,1.80
2022-09-02T14:10:13.042Z,2.17
2022-09-02T14:12:44.372Z,2.00
2022-09-02T14:15:17.012Z,1.92
2022-09-02T14:17:46.650Z,1.10
2022-09-02T14:20:20.617Z,1.30
2022-09-02T14:22:57.632Z,5.30
2022-09-02T14:25:28.735Z,1.48
2022-09-02T14:28:00.598Z,0.80
2022-09-02T14:30:34.683Z,1.50
2022-09-02T14:33:26.622Z,3.20
2022-09-02T14:36:02.339Z,2.28
2022-09-02T14:38:36.671Z,2.13
2022-09-02T14:41:13.026Z,2.28
2022-09-02T14:43:49.676Z,5.60
2022-09-02T14:46:28.418Z,1.10
2022-09-02T14:49:03.999Z,3.97
2022-09-02T14:51:40.229Z,3.40
2022-09-02T14:54:09.955Z,1.20
2022-09-02T14:56:51.716Z,1.55
2022-09-02T14:59:21.401Z,3.00
2022-09-02T15:01:54.617Z,1.73
2022-09-02T15:04:24.323Z,2.00
2022-09-02T15:06:52.738Z,2.38
2022-09-02T15:09:21.013Z,2.08
2022-09-02T15:11:55.548Z,4.72
2022-09-02T15:14:25.841Z,3.45
2022-09-02T15:16:55.136Z,2.25
2022-09-02T15:19:24.784Z,3.75
2022-09-02T15:21:53.363Z,2.40
2022-09-02T15:24:21.946Z,1.55
2022-09-02T15:26:50.180Z,3.20
2022-09-02T15:29:19.069Z,23.45
2022-09-02T15:31:47.322Z,9.38
2022-09-02T15:34:15.568Z,18.83
2022-09-02T15:36:45.340Z,56.30
2022-09-02T15:39:13.739Z,79.32
2022-09-02T15:41:44.786Z,18.88
2022-09-02T15:44:13.617Z,3.00
2022-09-02T15:46:43.846Z,1.70
2022-09-02T15:49:15.270Z,1.25
2022-09-02T15:51:46.889Z,3.45
2022-09-02T15:54:18.047Z,1.17
2022-09-02T15:56:48.565Z,1.00
2022-09-02T15:59:20.285Z,1.20
2022-09-02T16:01:52.366Z,3.35
2022-09-02T16:04:21.041Z,4.72
2022-09-02T16:06:53.308Z,2.38
2022-09-02T16:09:21.784Z,2.65
2022-09-02T16:11:52.780Z,2.05
2022-09-02T16:14:23.398Z,2.17
2022-09-02T16:16:56.090Z,0.75
2022-09-02T16:19:29.994Z,2.28
2022-09-02T16:22:00.160Z,3.33
2022-09-02T16:24:28.527Z,0.90
2022-09-02T16:26:57.248Z,6.65
2022-09-02T16:29:27.960Z,2.97
2022-09-02T16:32:14.378Z,3.03
2022-09-02T16:34:46.778Z,1.90
2022-09-02T16:37:17.566Z,3.13
2022-09-02T16:39:45.914Z,2.20
2022-09-02T16:42:14.285Z,1.60
2022-09-02T16:44:42.518Z,1.98
2022-09-02T16:47:12.940Z,2.60
2022-09-02T16:49:42.195Z,1.67
2022-09-02T16:52:10.687Z,2.25
2022-09-02T16:54:41.214Z,1.77
2022-09-02T16:57:09.977Z,1.55
2022-09-02T16:59:38.608Z,3.20
2022-09-02T17:02:06.984Z,0.93
2022-09-02T17:04:35.273Z,2.78
2022-09-02T17:07:04.737Z,2.55
2022-09-02T17:09:33.026Z,1.75
2022-09-02T17:12:02.747Z,2.85
2022-09-02T17:14:30.978Z,1.48
2022-09-02T17:16:59.293Z,1.48
2022-09-02T17:19:32.064Z,3.22
2022-09-02T17:22:00.895Z,1.83
2022-09-02T17:24:30.816Z,2.13
2022-09-02T17:27:00.539Z,1.52
2022-09-02T17:29:48.544Z,1.38
2022-09-02T17:32:17.670Z,2.55
2022-09-02T17:34:46.428Z,1.77
2022-09-02T17:37:15.056Z,1.63
2022-09-02T17:39:43.426Z,2.55
2022-09-02T17:42:11.914Z,4.10
2022-09-02T17:44:42.606Z,4.43
2022-09-02T17:47:15.721Z,1.88
2022-09-02T17:49:45.085Z,1.00
2022-09-02T17:52:16.942Z,1.55
2022-09-02T17:54:49.351Z,2.45
2022-09-02T17:57:48.042Z,3.55
2022-09-02T18:00:21.190Z,0.90
2022-09-02T18:03:37.840Z,2.03
2022-09-02T18:06:19.884Z,1.10
2022-09-02T18:08:57.015Z,4.65
2022-09-02T18:11:26.104Z,4.00
2022-09-02T18:14:13.181Z,3.85
2022-09-02T18:16:58.713Z,4.40
2022-09-02T18:19:48.070Z,5.80
2022-09-02T18:22:36.727Z,4.72
2022-09-02T18:25:16.328Z,2.13
2022-09-02T18:28:00.862Z,2.05
2022-09-02T18:30:40.758Z,2.28
2022-09-02T18:33:31.103Z,1.85
2022-09-02T18:36:14.847Z,3.25
2022-09-02T18:38:58.367Z,2.60
2022-09-02T18:41:50.194Z,2.10
2022-09-02T18:44:31.039Z,2.20
2022-09-02T18:47:05.425Z,1.00
2022-09-02T18:49:39.810Z,5.15
2022-09-02T18:52:11.046Z,3.22
2022-09-02T18:54:47.655Z,2.75
2022-09-02T18:57:16.934Z,3.28
2022-09-02T18:59:55.773Z,2.67
2022-09-02T19:02:32.432Z,4.22
2022-09-02T19:05:07.098Z,5.53
2022-09-02T19:07:55.635Z,2.65
2022-09-02T19:10:24.285Z,2.83
2022-09-02T19:12:52.902Z,5.50
2022-09-02T19:15:22.320Z,3.03
2022-09-02T19:17:51.021Z,2.80
2022-09-02T19:20:20.685Z,1.80
2022-09-02T19:22:55.762Z,2.30
2022-09-02T19:25:29.006Z,1.83
2022-09-02T19:28:02.396Z,3.90
2022-09-02T19:30:36.022Z,2.28
2022-09-02T19:33:10.243Z,2.10
2022-09-02T19:35:47.559Z,1.77
2022-09-02T19:38:17.756Z,2.22
2022-09-02T19:40:48.960Z,1.60
2022-09-02T19:43:17.673Z,1.42
2022-09-02T19:45:51.137Z,1.38
2022-09-02T19:48:21.129Z,3.50
2022-09-02T19:50:50.904Z,2.88
2022-09-02T19:53:25.689Z,2.60
2022-09-02T19:55:54.103Z,3.08
2022-09-02T19:58:22.841Z,2.15
2022-09-02T20:00:52.115Z,2.17
2022-09-02T20:03:21.019Z,1.27
2022-09-02T20:05:52.474Z,2.03
2022-09-02T20:08:21.350Z,3.22
2022-09-02T20:10:57.026Z,2.72
2022-09-02T20:13:27.327Z,1.98
2022-09-02T20:15:57.135Z,1.90
2022-09-02T20:18:27.777Z,2.75
2022-09-02T20:21:00.788Z,1.10
2022-09-02T20:23:33.477Z,1.95
2022-09-02T20:26:18.256Z,2.00
2022-09-02T20:29:05.195Z,2.03
2022-09-02T20:31:53.377Z,3.13
2022-09-02T20:34:46.524Z,1.92
2022-09-02T20:37:32.264Z,2.55
2022-09-02T20:40:27.036Z,2.03
2022-09-02T20:43:33.680Z,4.20
2022-09-02T20:46:11.235Z,1.85
2022-09-02T20:48:58.318Z,2.28
2022-09-02T20:51:40.438Z,3.13
2022-09-02T20:54:36.176Z,2.00
2022-09-02T20:57:30.149Z,1.60
2022-09-02T21:00:09.017Z,2.40
2022-09-02T21:02:43.597Z,4.40
2022-09-02T21:05:22.626Z,4.20
2022-09-02T21:07:59.161Z,2.15
2022-09-02T21:10:37.533Z,1.52
2022-09-02T21:13:15.118Z,4.82
2022-09-02T21:15:50.347Z,1.60
2022-09-02T21:18:30.015Z,2.10
2022-09-02T21:21:06.294Z,5.57
2022-09-02T21:23:41.888Z,2.10
2022-09-02T21:26:20.768Z,2.17
2022-09-02T21:28:56.279Z,1.50
2022-09-02T21:31:36.601Z,7.90
2022-09-02T21:34:11.432Z,2.25
2022-09-02T21:36:40.080Z,1.92
2022-09-02T21:39:17.165Z,1.70
2022-09-02T21:42:00.841Z,1.67
2022-09-02T21:44:47.560Z,5.00
2022-09-02T21:47:25.996Z,1.80
2022-09-02T21:50:18.743Z,4.72
2022-09-02T21:53:00.567Z,1.85
2022-09-02T21:55:54.123Z,2.72
2022-09-02T21:58:47.328Z,1.70
2022-09-02T22:01:23.365Z,2.35
2022-09-02T22:03:59.608Z,2.08
2022-09-02T22:06:35.994Z,1.92
2022-09-02T22:09:11.910Z,2.95
2022-09-02T22:11:48.533Z,3.50
2022-09-02T22:14:31.077Z,2.78
2022-09-02T22:17:10.082Z,2.08
2022-09-02T22:19:42.553Z,3.22
2022-09-02T22:22:16.206Z,2.03
2022-09-02T22:24:47.658Z,2.40
2022-09-02T22:27:22.244Z,2.80
2022-09-02T22:30:03.365Z,1.48
2022-09-02T22:32:39.656Z,1.85
2022-09-02T22:35:22.924Z,3.33
2022-09-02T22:38:03.414Z,1.88
2022-09-02T22:40:37.121Z,2.40
2022-09-02T22:43:12.931Z,3.55
2022-09-02T22:46:06.435Z,2.80
2022-09-02T22:49:03.818Z,1.85
2022-09-02T22:51:57.862Z,2.58
2022-09-02T22:54:27.420Z,1.83
2022-09-02T22:57:03.808Z,2.05
2022-09-02T22:59:53.724Z,3.55
2022-09-02T23:02:30.371Z,5.03
2022-09-02T23:05:33.441Z,2.75
2022-09-02T23:08:01.676Z,2.40
2022-09-02T23:10:30.257Z,2.15
2022-09-02T23:13:14.194Z,2.38
2022-09-02T23:15:58.600Z,5.03
2022-09-02T23:18:43.602Z,2.13
2022-09-02T23:21:26.037Z,2.42
2022-09-02T23:24:09.324Z,3.38
2022-09-02T23:26:51.361Z,3.20
2022-09-02T23:29:25.842Z,2.67
2022-09-02T23:32:39.388Z,3.47
2022-09-02T23:35:24.140Z,2.50
2022-09-02T23:38:07.228Z,3.38
2022-09-02T23:40:42.966Z,3.90
2022-09-02T23:43:14.833Z,2.78
2022-09-02T23:45:43.199Z,3.00
2022-09-02T23:48:32.640Z,3.60
2022-09-02T23:51:17.056Z,2.63
2022-09-02T23:54:07.281Z,2.92
2022-09-02T23:57:00.909Z,2.00
2022-09-02T23:59:45.197Z,3.88
